Clay Center, KS (67432)

8:42 PM CDT on July 31, 2014 (GMT -0500)
Clay County Medical Center (KKSCLAYC2) Elev 1274 ft | 39.39 °N, 97.12 °W | Change Station

Current weather conditions updated 2 seconds ago

Clear
Clear
77.5 °F
Feels Like 79 °F
N
5.0
Wind Variable Wind from SSE
Gusts 7.0 mph

Tomorrow is forecast to be Warmer than today.

Today
High -- | Low -- °F
--% Chance of Precip.
Yesterday
High -- | Low -- °F
Precip. -- in
6:27 AM 8:41 PM
Waxing Crescent, 22% visible
Pressure 29.99 in
Visibility 10.0 miles
Clouds Clear
Heat Index 79 °F
Dew Point 56 °F
Humidity 47%
Rainfall 0.00 in
Snow Depth Not available.
UV 0 out of 12
Pollen 6.70 out of 12
Air Quality Not available.
Flu Activity Not available.
METAR KMHK 010052Z 22003KT 10SM CLR 27/14 A3001 RMK AO2 SLP155 T02720144

More Conditions Fewer Conditions

Pressure 29.99 in
Visibility 10.0 miles
Clouds Clear
Heat Index 79 °F
Dew Point 56 °F
Humidity 47%
Rainfall 0.00 in
Snow Depth Not available.
UV 0 out of 12
Pollen 6.70 out of 12
Air Quality Not available.
Flu Activity Not available.
METAR KMHK 010052Z 22003KT 10SM CLR 27/14 A3001 RMK AO2 SLP155 T02720144

More Conditions Fewer Conditions

10-Day Weather Forecast

Almanac

Astronomy

Jul. 31, 2014 Rise Set
Actual Time 6:27 AM CDT 8:41 PM CDT
Civil Twilight 5:57 AM CDT 9:11 PM CDT
Nautical Twilight 5:20 AM CDT 9:48 PM CDT
Astronomical Twilight 4:39 AM CDT 10:28 PM CDT
Moon 10:54 AM CDT (7/31) 10:57 PM CDT (7/31)
Length of Visible Light 15h 14m
Length of Day
14h 14m
Tomorrow will be 1m 55s shorter.
Waxing Crescent, 22% of the Moon is Illuminated
Today
Waxing Crescent
Aug 3
First Quarter
Aug 10
Full
Aug 17
Last Quarter
Aug 25
New

Today's Extremes

State Highs State Lows

Community

WunderPhotos

Upload Photos

1,739,490 photos uploaded!

Nearby

Snow Depth

Station Depth Elevation
No new snow has been reported.

Earthquake Activity

City Distance Mag. Time & Date
No recent earthquake activity has been reported nearby.
Minimum magnitude displayed is 2.5.

Coastal Water Temperatures

Place Temperature
No Stations Reporting

Nearby Weather Stations

Station Location Temp. Heat Index Dew Point Humidity Wind Precip. Elev Updated Type
Clay County Medical Center, Clay Center, KS 77.5 °F 79 °F 56 °F 47% SSE  at  5.0 mph 0.00 in / hr 1274 ft 8:42 PM CDT Rapid Fire
SW of Idana, Clay Center, KS 76.0 °F 78 °F 56 °F 51% SSE  at  2.0 mph 0.00 in / hr 1298 ft 8:39 PM CDT Normal
Wakefield, KS 78.8 °F 79 °F 56 °F 45% South  at  0.0 mph 0.00 in / hr 1272 ft 8:42 PM CDT Rapid Fire

Show More Stations Show Fewer Stations